createdAt,value
2018-08-18T00:00:30.889Z,17.64
2018-08-18T00:03:00.434Z,17.66
2018-08-18T00:05:29.993Z,17.66
2018-08-18T00:07:59.553Z,17.66
2018-08-18T00:10:29.281Z,17.69
2018-08-18T00:12:59.003Z,17.67
2018-08-18T00:15:28.569Z,17.63
2018-08-18T00:17:58.724Z,17.61
2018-08-18T00:20:28.253Z,17.58
2018-08-18T00:22:57.854Z,17.57
2018-08-18T00:25:27.392Z,17.57
2018-08-18T00:27:58.729Z,17.58
2018-08-18T00:30:29.208Z,17.48
2018-08-18T00:32:59.102Z,17.50
2018-08-18T00:35:28.763Z,17.52
2018-08-18T00:37:58.346Z,17.53
2018-08-18T00:40:27.964Z,17.45
2018-08-18T00:42:57.485Z,17.40
2018-08-18T00:45:27.254Z,17.35
2018-08-18T00:47:56.826Z,17.26
2018-08-18T00:50:40.360Z,17.18
2018-08-18T00:53:11.001Z,17.16
2018-08-18T00:55:40.565Z,17.11
2018-08-18T00:58:18.389Z,17.01
2018-08-18T01:00:53.611Z,17.02
2018-08-18T01:03:23.368Z,16.95
2018-08-18T01:05:52.845Z,16.99
2018-08-18T01:08:22.658Z,16.93
2018-08-18T01:10:52.274Z,16.97
2018-08-18T01:13:21.893Z,16.99
2018-08-18T01:15:52.575Z,16.99
2018-08-18T01:18:22.281Z,16.96
2018-08-18T01:20:52.187Z,16.82
2018-08-18T01:23:21.792Z,16.78
2018-08-18T01:25:51.359Z,16.77
2018-08-18T01:28:20.899Z,16.77
2018-08-18T01:31:06.839Z,16.84
2018-08-18T01:33:37.621Z,16.90
2018-08-18T01:36:07.460Z,16.92
2018-08-18T01:38:37.992Z,16.95
2018-08-18T01:41:20.014Z,17.02
2018-08-18T01:44:10.176Z,16.99
2018-08-18T01:46:40.111Z,16.85
2018-08-18T01:49:24.999Z,16.77
2018-08-18T01:51:54.713Z,16.70
2018-08-18T01:54:24.234Z,16.68
2018-08-18T01:56:59.190Z,16.60
2018-08-18T01:59:28.778Z,16.63
2018-08-18T02:01:58.333Z,16.65
2018-08-18T02:04:28.240Z,16.73
2018-08-18T02:07:13.485Z,16.76
2018-08-18T02:09:43.361Z,16.70
2018-08-18T02:12:13.254Z,16.67
2018-08-18T02:14:43.252Z,16.70
2018-08-18T02:17:33.406Z,16.69
2018-08-18T02:20:03.123Z,16.70
2018-08-18T02:22:33.236Z,16.64
2018-08-18T02:25:02.933Z,16.63
2018-08-18T02:27:32.797Z,16.66
2018-08-18T02:30:16.277Z,16.64
2018-08-18T02:32:45.869Z,16.59
2018-08-18T02:35:15.504Z,16.59
2018-08-18T02:37:45.245Z,16.62
2018-08-18T02:40:16.943Z,16.59
2018-08-18T02:42:46.483Z,16.57
2018-08-18T02:45:16.967Z,16.53
2018-08-18T02:47:46.822Z,16.47
2018-08-18T02:50:16.624Z,16.43
2018-08-18T02:52:46.314Z,16.45
2018-08-18T02:55:16.524Z,16.37
2018-08-18T02:57:46.201Z,16.33
2018-08-18T03:00:24.684Z,16.34
2018-08-18T03:02:54.714Z,16.37
2018-08-18T03:05:24.531Z,16.31
2018-08-18T03:07:54.102Z,16.31
2018-08-18T03:10:25.069Z,16.31
2018-08-18T03:12:59.814Z,16.27
2018-08-18T03:16:09.115Z,16.11
2018-08-18T03:18:46.752Z,16.09
2018-08-18T03:21:17.055Z,16.12
2018-08-18T03:24:03.478Z,16.11
2018-08-18T03:27:03.601Z,16.03
2018-08-18T03:29:52.716Z,15.78
2018-08-18T03:32:26.012Z,15.73
2018-08-18T03:34:56.004Z,15.63
2018-08-18T03:37:30.554Z,15.60
2018-08-18T03:40:00.170Z,15.44
2018-08-18T03:42:35.929Z,15.46
2018-08-18T03:47:51.333Z,15.50
2018-08-18T03:50:20.990Z,15.57
2018-08-18T03:52:50.581Z,15.62
2018-08-18T03:55:33.119Z,15.68
2018-08-18T03:58:02.680Z,15.69
2018-08-18T04:00:32.274Z,15.75
2018-08-18T04:03:02.202Z,15.71
2018-08-18T04:05:31.797Z,15.69
2018-08-18T04:08:01.401Z,15.69
2018-08-18T04:10:30.991Z,15.67
2018-08-18T04:13:01.633Z,15.75
2018-08-18T04:15:31.200Z,15.81
2018-08-18T04:18:05.313Z,15.86
2018-08-18T04:20:34.813Z,15.81
2018-08-18T04:23:04.414Z,15.79
2018-08-18T04:25:33.954Z,15.61
2018-08-18T04:28:03.523Z,15.53
2018-08-18T04:30:33.074Z,15.52
2018-08-18T04:33:03.936Z,15.58
2018-08-18T04:35:34.061Z,15.56
2018-08-18T04:38:04.444Z,15.56
2018-08-18T04:40:36.622Z,15.55
2018-08-18T04:43:06.189Z,15.58
2018-08-18T04:45:35.895Z,15.59
2018-08-18T04:48:05.978Z,15.63
2018-08-18T04:50:35.612Z,15.67
2018-08-18T04:53:09.016Z,15.68
2018-08-18T04:55:38.623Z,15.70
2018-08-18T04:58:08.242Z,15.71
2018-08-18T05:00:37.889Z,15.76
2018-08-18T05:03:07.749Z,15.79
2018-08-18T05:05:37.330Z,15.77
2018-08-18T05:08:13.457Z,15.81
2018-08-18T05:10:42.990Z,15.76
2018-08-18T05:13:43.043Z,15.78
2018-08-18T05:16:12.607Z,15.76
2018-08-18T05:18:42.234Z,15.77
2018-08-18T05:21:11.855Z,15.79
2018-08-18T05:23:41.557Z,15.81
2018-08-18T05:26:11.229Z,15.72
2018-08-18T05:28:40.938Z,15.86
2018-08-18T05:31:10.546Z,15.88
2018-08-18T05:33:40.241Z,15.77
2018-08-18T05:36:10.969Z,15.90
2018-08-18T05:38:41.975Z,15.93
2018-08-18T05:41:11.908Z,16.00
2018-08-18T05:43:41.606Z,16.05
2018-08-18T05:46:11.388Z,16.08
2018-08-18T05:48:40.959Z,16.13
2018-08-18T05:51:10.846Z,16.15
2018-08-18T05:53:40.519Z,16.17
2018-08-18T05:56:10.081Z,16.27
2018-08-18T05:58:51.979Z,16.30
2018-08-18T06:01:28.615Z,16.33
2018-08-18T06:04:04.195Z,16.41
2018-08-18T06:06:34.159Z,16.52
2018-08-18T06:09:04.569Z,16.62
2018-08-18T06:11:34.162Z,16.68
2018-08-18T06:14:03.761Z,16.83
2018-08-18T06:16:33.385Z,16.96
2018-08-18T06:19:03.300Z,17.11
2018-08-18T06:24:29.651Z,17.43
2018-08-18T06:26:59.200Z,17.68
2018-08-18T06:29:29.755Z,17.87
2018-08-18T06:32:01.795Z,18.09
2018-08-18T06:34:33.027Z,18.40
2018-08-18T06:37:03.146Z,18.73
2018-08-18T06:39:51.114Z,18.97
2018-08-18T06:42:34.042Z,19.15
2018-08-18T06:45:05.324Z,19.15
2018-08-18T06:47:34.942Z,19.26
2018-08-18T06:50:06.040Z,19.43
2018-08-18T06:52:35.593Z,19.67
2018-08-18T06:55:06.734Z,19.75
2018-08-18T06:57:43.555Z,19.89
2018-08-18T07:00:15.518Z,19.93
2018-08-18T07:02:45.114Z,19.96
2018-08-18T07:05:15.840Z,19.88
2018-08-18T07:07:46.108Z,19.84
2018-08-18T07:10:35.719Z,19.66
2018-08-18T07:13:06.998Z,19.67
2018-08-18T07:15:44.755Z,19.67
2018-08-18T07:18:15.598Z,19.56
2018-08-18T07:20:45.455Z,19.61
2018-08-18T07:23:15.010Z,19.64
2018-08-18T07:25:50.776Z,19.67
2018-08-18T07:28:21.954Z,19.60
2018-08-18T07:30:51.736Z,19.66
2018-08-18T07:33:22.062Z,19.74
2018-08-18T07:35:51.664Z,20.00
2018-08-18T07:38:21.364Z,20.15
2018-08-18T07:40:53.448Z,20.28
2018-08-18T07:43:26.474Z,20.64
2018-08-18T07:45:57.954Z,20.90
2018-08-18T07:48:27.868Z,21.19
2018-08-18T07:50:57.486Z,21.30
2018-08-18T07:53:27.226Z,21.23
2018-08-18T07:56:02.470Z,21.47
2018-08-18T07:58:32.747Z,21.66
2018-08-18T08:01:04.979Z,21.71
2018-08-18T08:03:37.011Z,21.74
2018-08-18T08:06:11.516Z,21.99
2018-08-18T08:08:46.205Z,22.07
2018-08-18T08:11:15.778Z,22.02
2018-08-18T08:13:45.333Z,21.93
2018-08-18T08:16:14.838Z,22.09
2018-08-18T08:18:44.716Z,22.23
2018-08-18T08:21:14.279Z,22.36
2018-08-18T08:23:43.838Z,22.58
2018-08-18T08:26:13.727Z,22.92
2018-08-18T08:28:43.290Z,23.05
2018-08-18T08:31:12.849Z,23.29
2018-08-18T08:33:42.631Z,23.62
2018-08-18T08:36:15.794Z,23.83
2018-08-18T08:38:58.663Z,23.76
2018-08-18T08:41:33.643Z,23.97
2018-08-18T08:44:05.523Z,24.15
2018-08-18T08:46:52.100Z,24.30
2018-08-18T08:49:29.030Z,24.46
2018-08-18T08:51:59.479Z,24.75
2018-08-18T08:54:35.608Z,24.64
2018-08-18T08:57:07.636Z,24.85
2018-08-18T08:59:39.025Z,24.99
2018-08-18T09:02:14.335Z,24.79
2018-08-18T09:04:44.169Z,25.04
2018-08-18T09:07:14.194Z,24.77
2018-08-18T09:09:44.157Z,24.92
2018-08-18T09:12:13.911Z,24.98
2018-08-18T09:14:43.909Z,24.42
2018-08-18T09:17:14.402Z,24.10
2018-08-18T09:19:44.701Z,24.48
2018-08-18T09:22:14.780Z,24.94
2018-08-18T09:24:44.826Z,25.13
2018-08-18T09:27:15.265Z,25.11
2018-08-18T09:29:45.087Z,25.03
2018-08-18T09:32:37.993Z,25.18
2018-08-18T09:35:07.966Z,24.92
2018-08-18T09:37:37.899Z,25.18
2018-08-18T09:40:08.021Z,25.18
2018-08-18T09:42:37.956Z,25.37
2018-08-18T09:45:31.698Z,25.42
2018-08-18T09:48:21.784Z,24.88
2018-08-18T09:50:51.832Z,25.00
2018-08-18T09:53:28.294Z,24.82
2018-08-18T09:55:58.966Z,24.74
2018-08-18T09:58:29.577Z,24.71
2018-08-18T10:00:59.416Z,25.04
2018-08-18T10:03:29.413Z,25.27
2018-08-18T10:06:07.660Z,25.42
2018-08-18T10:08:37.883Z,25.35
2018-08-18T10:11:08.083Z,25.48
2018-08-18T10:13:38.158Z,25.19
2018-08-18T10:16:09.388Z,24.82
2018-08-18T10:18:43.683Z,24.93
2018-08-18T10:21:14.651Z,24.56
2018-08-18T10:23:49.444Z,24.81
2018-08-18T10:26:19.306Z,25.21
2018-08-18T10:28:50.039Z,25.34
2018-08-18T10:31:19.914Z,25.18
2018-08-18T10:33:49.727Z,25.48
2018-08-18T10:36:19.590Z,25.74
2018-08-18T10:38:49.613Z,25.86
2018-08-18T10:41:19.398Z,26.12
2018-08-18T10:43:49.149Z,26.10
2018-08-18T10:46:18.919Z,26.34
2018-08-18T10:48:52.567Z,26.45
2018-08-18T10:51:39.359Z,26.12
2018-08-18T10:54:09.755Z,25.88
2018-08-18T10:59:59.279Z,25.51
2018-08-18T11:02:34.086Z,25.53
2018-08-18T11:05:03.982Z,25.63
2018-08-18T11:07:33.573Z,25.91
2018-08-18T11:10:03.264Z,25.75
2018-08-18T11:12:40.984Z,25.53
2018-08-18T11:15:13.020Z,25.79
2018-08-18T11:17:42.726Z,25.80
2018-08-18T11:20:19.067Z,25.58
2018-08-18T11:23:09.500Z,25.46
2018-08-18T11:25:48.837Z,25.67
2018-08-18T11:28:19.186Z,25.64
2018-08-18T11:30:50.701Z,25.90
2018-08-18T11:33:43.817Z,26.20
2018-08-18T11:36:16.477Z,26.22
2018-08-18T11:38:46.100Z,26.25
2018-08-18T11:41:15.734Z,26.10
2018-08-18T11:43:49.051Z,25.99
2018-08-18T11:46:18.581Z,25.75
2018-08-18T11:48:48.181Z,25.98
2018-08-18T11:51:17.694Z,26.06
2018-08-18T11:54:00.332Z,26.09
2018-08-18T11:56:30.155Z,25.88
2018-08-18T11:59:08.773Z,26.06
2018-08-18T12:01:39.857Z,26.24
2018-08-18T12:04:09.471Z,26.23
2018-08-18T12:06:48.002Z,26.12
2018-08-18T12:09:18.473Z,25.82
2018-08-18T12:11:49.715Z,25.67
2018-08-18T12:14:19.432Z,25.52
2018-08-18T12:16:50.143Z,25.32
2018-08-18T12:19:21.326Z,25.24
2018-08-18T12:21:50.925Z,25.32
2018-08-18T12:24:22.116Z,24.85
2018-08-18T12:27:06.951Z,24.82
2018-08-18T12:29:36.626Z,24.94
2018-08-18T12:32:12.734Z,25.14
2018-08-18T12:34:42.376Z,25.34
2018-08-18T12:37:14.426Z,25.24
2018-08-18T12:39:48.110Z,25.21
2018-08-18T12:42:23.088Z,25.26
2018-08-18T12:44:52.714Z,25.27
2018-08-18T12:47:37.326Z,25.44
2018-08-18T12:50:07.576Z,25.52
2018-08-18T12:52:47.992Z,25.47
2018-08-18T12:55:17.838Z,25.59
2018-08-18T12:57:49.531Z,25.59
2018-08-18T13:00:19.483Z,25.70
2018-08-18T13:02:54.617Z,25.67
2018-08-18T13:05:27.608Z,25.40
2018-08-18T13:07:57.850Z,25.43
2018-08-18T13:10:29.126Z,25.40
2018-08-18T13:12:58.853Z,25.51
2018-08-18T13:15:29.240Z,25.31
2018-08-18T13:18:03.475Z,25.32
2018-08-18T13:20:33.516Z,25.38
2018-08-18T13:23:03.438Z,25.38
2018-08-18T13:25:33.203Z,25.37
2018-08-18T13:28:05.860Z,25.57
2018-08-18T13:30:35.732Z,25.58
2018-08-18T13:33:05.603Z,25.57
2018-08-18T13:35:35.922Z,25.64
2018-08-18T13:38:18.031Z,25.65
2018-08-18T13:40:48.896Z,25.72
2018-08-18T13:43:34.538Z,25.58
2018-08-18T13:46:04.572Z,25.37
2018-08-18T13:48:34.321Z,25.39
2018-08-18T13:51:04.141Z,25.46
2018-08-18T13:53:39.751Z,25.43
2018-08-18T13:56:12.340Z,25.42
2018-08-18T13:58:44.851Z,25.39
2018-08-18T14:01:39.024Z,25.44
2018-08-18T14:04:36.009Z,25.51
2018-08-18T14:07:07.119Z,25.54
2018-08-18T14:09:47.219Z,25.61
2018-08-18T14:12:21.849Z,25.52
2018-08-18T14:14:55.016Z,25.50
2018-08-18T14:17:28.926Z,25.63
2018-08-18T14:20:02.180Z,25.63
2018-08-18T14:22:35.249Z,25.70
2018-08-18T14:25:08.631Z,25.66
2018-08-18T14:27:51.699Z,25.68
2018-08-18T14:30:31.849Z,25.80
2018-08-18T14:33:06.217Z,25.82
2018-08-18T14:35:46.043Z,25.69
2018-08-18T14:38:18.976Z,25.59
2018-08-18T14:40:52.360Z,25.62
2018-08-18T14:43:29.918Z,25.65
2018-08-18T14:46:17.912Z,25.64
2018-08-18T14:48:50.977Z,25.69
2018-08-18T14:51:35.057Z,25.23
2018-08-18T14:56:54.456Z,25.79
2018-08-18T14:59:36.854Z,25.75
2018-08-18T15:02:10.782Z,25.80
2018-08-18T15:04:43.966Z,25.80
2018-08-18T15:07:17.144Z,25.64
2018-08-18T15:09:54.790Z,25.75
2018-08-18T15:12:28.409Z,25.76
2018-08-18T15:14:58.401Z,25.85
2018-08-18T15:17:31.413Z,25.88
2018-08-18T15:20:03.868Z,25.91
2018-08-18T15:22:36.857Z,25.81
2018-08-18T15:25:10.762Z,25.95
2018-08-18T15:27:45.108Z,26.02
2018-08-18T15:30:24.287Z,25.89
2018-08-18T15:32:58.024Z,26.03
2018-08-18T15:35:33.259Z,26.15
2018-08-18T15:38:13.843Z,26.05
2018-08-18T15:40:56.944Z,25.91
2018-08-18T15:43:30.270Z,26.05
2018-08-18T15:46:10.262Z,26.05
2018-08-18T15:48:44.736Z,25.91
2018-08-18T15:51:18.301Z,25.95
2018-08-18T15:53:55.280Z,25.99
2018-08-18T15:56:31.668Z,26.02
2018-08-18T15:59:05.907Z,25.91
2018-08-18T16:01:41.541Z,25.84
2018-08-18T16:04:13.442Z,25.78
2018-08-18T16:06:46.742Z,25.72
2018-08-18T16:09:20.087Z,25.64
2018-08-18T16:12:17.864Z,25.62
2018-08-18T16:15:01.954Z,25.52
2018-08-18T16:17:35.333Z,25.51
2018-08-18T16:23:29.712Z,25.31
2018-08-18T16:26:03.918Z,25.42
2018-08-18T16:28:38.184Z,25.49
2018-08-18T16:31:11.704Z,25.49
2018-08-18T16:33:47.680Z,25.52
2018-08-18T16:36:21.079Z,25.41
2018-08-18T16:38:54.685Z,25.51
2018-08-18T16:41:28.718Z,25.53
2018-08-18T16:44:01.673Z,25.49
2018-08-18T16:46:35.373Z,25.57
2018-08-18T16:49:08.743Z,25.50
2018-08-18T16:51:42.706Z,25.44
2018-08-18T16:54:25.407Z,25.41
2018-08-18T16:56:58.621Z,25.39
2018-08-18T16:59:32.148Z,25.40
2018-08-18T17:02:06.261Z,25.37
2018-08-18T17:04:40.993Z,25.22
2018-08-18T17:07:23.683Z,25.16
2018-08-18T17:09:53.419Z,25.16
2018-08-18T17:12:32.629Z,25.10
2018-08-18T17:15:05.719Z,25.08
2018-08-18T17:17:38.492Z,25.09
2018-08-18T17:20:12.284Z,25.05
2018-08-18T17:22:46.942Z,24.96
2018-08-18T17:25:19.549Z,24.89
2018-08-18T17:27:53.817Z,24.85
2018-08-18T17:30:33.865Z,24.81
2018-08-18T17:33:10.528Z,24.70
2018-08-18T17:35:46.921Z,24.75
2018-08-18T17:38:23.726Z,24.69
2018-08-18T17:40:59.780Z,24.66
2018-08-18T17:43:38.974Z,24.65
2018-08-18T17:46:16.601Z,24.67
2018-08-18T17:48:57.015Z,24.64
2018-08-18T17:51:33.182Z,24.58
2018-08-18T17:54:05.966Z,24.54
2018-08-18T17:56:36.781Z,24.51
2018-08-18T17:59:09.748Z,24.48
2018-08-18T18:02:01.262Z,24.45
2018-08-18T18:04:33.536Z,24.28
2018-08-18T18:07:05.025Z,24.22
2018-08-18T18:09:36.126Z,24.18
2018-08-18T18:12:27.441Z,24.11
2018-08-18T18:15:02.132Z,24.04
2018-08-18T18:20:28.743Z,24.05
2018-08-18T18:23:06.978Z,23.84
2018-08-18T18:25:49.631Z,23.84
2018-08-18T18:28:24.990Z,23.86
2018-08-18T18:30:59.596Z,23.77
2018-08-18T18:33:31.420Z,23.63
2018-08-18T18:36:05.101Z,23.55
2018-08-18T18:39:13.241Z,23.51
2018-08-18T18:41:48.088Z,23.49
2018-08-18T18:44:27.061Z,23.45
2018-08-18T18:46:58.836Z,23.36
2018-08-18T18:49:35.720Z,23.34
2018-08-18T18:52:09.278Z,23.27
2018-08-18T18:54:42.074Z,23.23
2018-08-18T18:57:12.022Z,23.21
2018-08-18T18:59:56.202Z,23.13
2018-08-18T19:02:39.059Z,23.12
2018-08-18T19:05:27.742Z,23.06
2018-08-18T19:08:16.362Z,22.97
2018-08-18T19:10:46.280Z,22.95
2018-08-18T19:13:29.613Z,22.91
2018-08-18T19:16:10.850Z,22.91
2018-08-18T19:18:42.213Z,22.91
2018-08-18T19:21:14.881Z,22.93
2018-08-18T19:23:51.806Z,22.93
2018-08-18T19:26:22.360Z,22.91
2018-08-18T19:28:53.677Z,22.93
2018-08-18T19:31:28.942Z,22.94
2018-08-18T19:34:13.131Z,22.95
2018-08-18T19:37:01.567Z,22.95
2018-08-18T19:39:32.926Z,22.93
2018-08-18T19:42:14.630Z,22.90
2018-08-18T19:44:47.390Z,22.90
2018-08-18T19:47:31.868Z,22.88
2018-08-18T19:50:08.041Z,22.80
2018-08-18T19:52:38.962Z,22.72
2018-08-18T19:55:11.896Z,22.62
2018-08-18T19:57:46.527Z,22.56
2018-08-18T20:00:28.477Z,22.48
2018-08-18T20:03:10.907Z,22.43
2018-08-18T20:05:40.821Z,22.37
2018-08-18T20:08:25.612Z,22.29
2018-08-18T20:11:00.356Z,22.29
2018-08-18T20:13:32.606Z,22.32
2018-08-18T20:16:08.140Z,22.36
2018-08-18T20:18:45.715Z,22.27
2018-08-18T20:21:18.698Z,22.18
2018-08-18T20:23:57.276Z,22.16
2018-08-18T20:26:35.872Z,22.15
2018-08-18T20:29:09.583Z,22.14
2018-08-18T20:31:56.171Z,22.15
2018-08-18T20:37:29.001Z,22.08
2018-08-18T20:40:06.897Z,22.08
2018-08-18T20:42:42.025Z,22.09
2018-08-18T20:45:17.737Z,22.08
2018-08-18T20:47:50.895Z,22.02
2018-08-18T20:50:24.567Z,21.98
2018-08-18T20:53:07.186Z,21.94
2018-08-18T20:55:37.236Z,21.94
2018-08-18T20:58:07.101Z,21.91
2018-08-18T21:00:36.917Z,21.83
2018-08-18T21:03:15.667Z,21.77
2018-08-18T21:05:45.676Z,21.72
2018-08-18T21:08:22.734Z,21.71
2018-08-18T21:11:01.265Z,21.75
2018-08-18T21:13:34.473Z,21.68
2018-08-18T21:16:04.379Z,21.68
2018-08-18T21:18:39.133Z,21.63
2018-08-18T21:21:43.306Z,21.65
2018-08-18T21:24:14.055Z,21.62
2018-08-18T21:26:48.230Z,21.59
2018-08-18T21:29:17.919Z,21.55
2018-08-18T21:31:50.931Z,21.52
2018-08-18T21:34:24.474Z,21.49
2018-08-18T21:36:54.519Z,21.48
2018-08-18T21:39:24.271Z,21.45
2018-08-18T21:42:06.448Z,21.46
2018-08-18T21:44:36.114Z,21.46
2018-08-18T21:47:12.446Z,21.46
2018-08-18T21:49:48.656Z,21.45
2018-08-18T21:52:24.649Z,21.48
2018-08-18T21:55:04.112Z,21.44
2018-08-18T21:57:52.548Z,21.44
2018-08-18T22:00:23.221Z,21.38
2018-08-18T22:02:53.550Z,21.32
2018-08-18T22:05:23.214Z,21.05
2018-08-18T22:07:54.871Z,21.28
2018-08-18T22:10:26.432Z,21.23
2018-08-18T22:13:01.475Z,21.18
2018-08-18T22:18:21.726Z,21.01
2018-08-18T22:20:53.611Z,21.05
2018-08-18T22:23:28.391Z,21.13
2018-08-18T22:26:01.487Z,21.12
2018-08-18T22:28:31.165Z,21.09
2018-08-18T22:31:02.490Z,20.97
2018-08-18T22:33:39.314Z,20.92
2018-08-18T22:36:08.985Z,20.90
2018-08-18T22:38:39.358Z,20.84
2018-08-18T22:41:09.077Z,20.71
2018-08-18T22:43:39.277Z,20.65
2018-08-18T22:46:11.786Z,20.63
2018-08-18T22:48:42.102Z,20.54
2018-08-18T22:51:11.915Z,20.51
2018-08-18T22:53:44.265Z,20.46
2018-08-18T22:56:17.969Z,20.43
2018-08-18T22:59:04.858Z,20.47
2018-08-18T23:01:37.256Z,20.43
2018-08-18T23:04:44.772Z,20.35
2018-08-18T23:07:17.094Z,20.24
2018-08-18T23:09:47.221Z,20.23
2018-08-18T23:12:16.803Z,20.22
2018-08-18T23:14:46.430Z,20.16
2018-08-18T23:17:16.032Z,20.08
2018-08-18T23:19:45.939Z,20.01
2018-08-18T23:22:38.064Z,19.99
2018-08-18T23:25:07.754Z,20.02
2018-08-18T23:27:39.031Z,20.02
2018-08-18T23:30:10.226Z,20.00
2018-08-18T23:32:44.151Z,19.96
2018-08-18T23:35:14.311Z,19.89
2018-08-18T23:37:44.202Z,19.92
2018-08-18T23:40:14.457Z,19.89
2018-08-18T23:42:46.818Z,19.85
2018-08-18T23:45:18.073Z,19.80
2018-08-18T23:47:58.496Z,19.77
2018-08-18T23:50:28.497Z,19.72
2018-08-18T23:53:04.951Z,19.68
2018-08-18T23:55:40.167Z,19.66
2018-08-18T23:58:12.617Z,19.64
